createdAt,value
2023-05-24T00:00:48.822Z,13.52
2023-05-24T00:03:19.128Z,13.39
2023-05-24T00:05:47.241Z,13.29
2023-05-24T00:08:16.104Z,13.16
2023-05-24T00:10:44.514Z,13.17
2023-05-24T00:13:12.637Z,13.20
2023-05-24T00:15:40.545Z,13.15
2023-05-24T00:18:08.545Z,13.05
2023-05-24T00:20:37.939Z,12.96
2023-05-24T00:23:06.025Z,12.87
2023-05-24T00:25:33.990Z,12.79
2023-05-24T00:28:01.918Z,12.74
2023-05-24T00:30:29.848Z,12.66
2023-05-24T00:32:58.234Z,12.58
2023-05-24T00:35:26.234Z,12.50
2023-05-24T00:37:55.529Z,12.45
2023-05-24T00:40:23.457Z,12.47
2023-05-24T00:42:51.419Z,12.30
2023-05-24T00:45:19.347Z,12.00
2023-05-24T00:47:47.972Z,12.33
2023-05-24T00:50:17.372Z,12.44
2023-05-24T00:52:46.209Z,12.46
2023-05-24T00:55:15.998Z,12.51
2023-05-24T00:57:44.795Z,12.54
2023-05-24T01:00:13.799Z,12.59
2023-05-24T01:02:42.133Z,12.65
2023-05-24T01:05:13.785Z,12.59
2023-05-24T01:07:55.665Z,12.67
2023-05-24T01:10:33.461Z,12.73
2023-05-24T01:13:08.538Z,12.80
2023-05-24T01:15:46.928Z,12.83
2023-05-24T01:18:22.256Z,12.80
2023-05-24T01:21:02.628Z,12.52
2023-05-24T01:23:43.246Z,12.62
2023-05-24T01:26:30.414Z,12.74
2023-05-24T01:29:02.377Z,12.66
2023-05-24T01:31:30.371Z,12.61
2023-05-24T01:33:58.880Z,12.61
2023-05-24T01:36:27.098Z,12.63
2023-05-24T01:38:55.144Z,12.67
2023-05-24T01:41:34.422Z,12.73
2023-05-24T01:44:12.603Z,12.37
2023-05-24T01:46:40.723Z,12.36
2023-05-24T01:49:18.521Z,12.30
2023-05-24T01:51:51.969Z,12.09
2023-05-24T01:54:24.511Z,12.03
2023-05-24T01:56:55.074Z,11.99
2023-05-24T01:59:27.070Z,11.84
2023-05-24T02:01:55.791Z,12.01
2023-05-24T02:04:24.044Z,12.02
2023-05-24T02:06:52.177Z,12.26
2023-05-24T02:09:20.277Z,12.33
2023-05-24T02:11:48.271Z,12.41
2023-05-24T02:14:17.413Z,12.33
2023-05-24T02:16:47.516Z,12.36
2023-05-24T02:19:17.216Z,12.28
2023-05-24T02:21:45.632Z,12.32
2023-05-24T02:24:13.696Z,12.27
2023-05-24T02:26:41.922Z,12.41
2023-05-24T02:29:09.910Z,12.46
2023-05-24T02:31:38.276Z,12.42
2023-05-24T02:34:07.996Z,12.42
2023-05-24T02:36:37.622Z,12.43
2023-05-24T02:39:06.339Z,12.37
2023-05-24T02:41:34.252Z,12.35
2023-05-24T02:44:02.101Z,12.12
2023-05-24T02:46:30.068Z,12.05
2023-05-24T02:48:57.991Z,12.05
2023-05-24T02:51:27.224Z,12.22
2023-05-24T02:53:55.282Z,12.22
2023-05-24T02:56:23.190Z,12.15
2023-05-24T02:58:51.168Z,11.97
2023-05-24T03:01:19.940Z,12.00
2023-05-24T03:03:48.219Z,12.10
2023-05-24T03:06:16.411Z,12.07
2023-05-24T03:08:46.110Z,12.04
2023-05-24T03:11:14.167Z,12.13
2023-05-24T03:13:42.578Z,12.14
2023-05-24T03:16:10.671Z,11.88
2023-05-24T03:18:38.573Z,11.82
2023-05-24T03:21:07.622Z,12.26
2023-05-24T03:23:35.680Z,12.40
2023-05-24T03:26:05.181Z,12.58
2023-05-24T03:28:33.851Z,12.54
2023-05-24T03:31:01.789Z,12.79
2023-05-24T03:33:30.113Z,12.99
2023-05-24T03:35:57.978Z,12.91
2023-05-24T03:38:26.017Z,12.87
2023-05-24T03:40:54.024Z,12.93
2023-05-24T03:43:23.336Z,12.80
2023-05-24T03:45:52.296Z,12.87
2023-05-24T03:48:20.950Z,12.78
2023-05-24T03:50:49.087Z,12.63
2023-05-24T03:53:17.147Z,12.98
2023-05-24T03:55:45.104Z,12.87
2023-05-24T03:58:13.742Z,12.95
2023-05-24T04:00:43.393Z,13.08
2023-05-24T04:03:12.282Z,12.87
2023-05-24T04:05:40.410Z,13.22
2023-05-24T04:08:08.538Z,13.23
2023-05-24T04:10:36.424Z,13.35
2023-05-24T04:13:04.349Z,13.21
2023-05-24T04:15:33.114Z,13.37
2023-05-24T04:18:03.483Z,13.43
2023-05-24T04:20:31.596Z,13.00
2023-05-24T04:23:00.039Z,13.45
2023-05-24T04:25:28.050Z,13.58
2023-05-24T04:27:56.234Z,13.53
2023-05-24T04:30:24.445Z,13.79
2023-05-24T04:32:52.969Z,13.85
2023-05-24T04:35:22.708Z,13.86
2023-05-24T04:37:50.866Z,14.09
2023-05-24T04:40:20.764Z,14.21
2023-05-24T04:42:48.943Z,14.60
2023-05-24T04:45:17.239Z,14.74
2023-05-24T04:47:45.251Z,15.01
2023-05-24T04:50:13.295Z,14.82
2023-05-24T04:52:42.589Z,14.91
2023-05-24T04:55:11.526Z,14.99
2023-05-24T04:57:39.508Z,14.80
2023-05-24T05:00:10.287Z,15.06
2023-05-24T05:02:38.288Z,15.01
2023-05-24T05:05:07.177Z,15.21
2023-05-24T05:07:35.062Z,15.34
2023-05-24T05:10:04.457Z,15.37
2023-05-24T05:12:32.354Z,15.29
2023-05-24T05:15:00.294Z,15.26
2023-05-24T05:17:28.200Z,15.41
2023-05-24T05:19:56.082Z,15.65
2023-05-24T05:22:24.112Z,15.82
2023-05-24T05:24:52.685Z,16.13
2023-05-24T05:27:21.991Z,16.31
2023-05-24T05:29:49.975Z,16.16
2023-05-24T05:32:18.032Z,16.39
2023-05-24T05:34:46.485Z,16.59
2023-05-24T05:37:14.656Z,17.12
2023-05-24T05:39:42.578Z,17.33
2023-05-24T05:42:10.467Z,17.81
2023-05-24T05:44:39.784Z,18.21
2023-05-24T05:47:09.523Z,18.33
2023-05-24T05:49:37.570Z,18.87
2023-05-24T05:52:06.255Z,19.18
2023-05-24T05:54:34.493Z,18.99
2023-05-24T05:57:02.451Z,19.21
2023-05-24T05:59:30.406Z,19.58
2023-05-24T06:01:59.676Z,19.59
2023-05-24T06:04:27.639Z,19.79
2023-05-24T06:06:55.569Z,20.20
2023-05-24T06:09:23.615Z,19.91
2023-05-24T06:11:51.619Z,19.70
2023-05-24T06:14:21.410Z,19.51
2023-05-24T06:16:49.502Z,19.58
2023-05-24T06:19:19.130Z,19.58
2023-05-24T06:21:48.491Z,19.72
2023-05-24T06:24:20.550Z,19.73
2023-05-24T06:26:48.865Z,20.09
2023-05-24T06:29:16.928Z,20.47
2023-05-24T06:31:44.972Z,20.84
2023-05-24T06:34:13.094Z,20.82
2023-05-24T06:36:43.072Z,20.70
2023-05-24T06:39:11.454Z,20.67
2023-05-24T06:41:39.500Z,20.56
2023-05-24T06:44:07.546Z,20.70
2023-05-24T06:46:35.825Z,20.83
2023-05-24T06:49:04.390Z,20.91
2023-05-24T06:51:33.950Z,21.15
2023-05-24T06:54:03.446Z,21.00
2023-05-24T06:56:31.391Z,21.12
2023-05-24T06:59:00.009Z,21.21
2023-05-24T07:01:28.404Z,21.24
2023-05-24T07:03:56.421Z,21.30
2023-05-24T07:06:25.211Z,21.55
2023-05-24T07:08:53.148Z,21.76
2023-05-24T07:11:22.893Z,21.69
2023-05-24T07:13:50.798Z,21.48
2023-05-24T07:16:18.841Z,21.45
2023-05-24T07:18:46.850Z,21.38
2023-05-24T07:21:14.746Z,21.29
2023-05-24T07:23:42.815Z,21.16
2023-05-24T07:26:10.761Z,21.67
2023-05-24T07:28:40.568Z,22.35
2023-05-24T07:31:10.409Z,23.14
2023-05-24T07:33:38.829Z,22.98
2023-05-24T07:36:07.468Z,22.97
2023-05-24T07:38:36.191Z,23.43
2023-05-24T07:41:04.919Z,23.31
2023-05-24T07:43:33.142Z,23.66
2023-05-24T07:46:02.997Z,23.93
2023-05-24T07:48:30.860Z,24.33
2023-05-24T07:50:58.781Z,24.35
2023-05-24T07:53:26.800Z,24.28
2023-05-24T07:55:55.226Z,24.62
2023-05-24T07:58:23.224Z,24.94
2023-05-24T08:00:51.309Z,24.94
2023-05-24T08:03:20.731Z,24.84
2023-05-24T08:05:48.686Z,24.29
2023-05-24T08:08:16.660Z,24.53
2023-05-24T08:10:44.595Z,24.50
2023-05-24T08:13:12.585Z,24.31
2023-05-24T08:15:40.940Z,24.58
2023-05-24T08:18:09.635Z,24.27
2023-05-24T08:20:40.936Z,24.20
2023-05-24T08:23:09.030Z,24.16
2023-05-24T08:25:36.995Z,24.29
2023-05-24T08:28:04.982Z,24.33
2023-05-24T08:30:33.358Z,24.40
2023-05-24T08:33:01.691Z,24.71
2023-05-24T08:35:30.360Z,24.51
2023-05-24T08:37:59.742Z,24.64
2023-05-24T08:40:27.678Z,24.59
2023-05-24T08:42:58.011Z,24.65
2023-05-24T08:45:30.366Z,24.69
2023-05-24T08:47:58.736Z,24.78
2023-05-24T08:50:27.123Z,24.82
2023-05-24T08:52:55.840Z,24.75
2023-05-24T08:55:25.862Z,24.68
2023-05-24T08:57:53.905Z,24.76
2023-05-24T09:00:22.902Z,24.85
2023-05-24T09:02:51.510Z,25.06
2023-05-24T09:05:21.974Z,24.93
2023-05-24T09:07:51.582Z,25.01
2023-05-24T09:10:21.604Z,25.14
2023-05-24T09:12:57.614Z,25.39
2023-05-24T09:15:25.891Z,25.04
2023-05-24T09:17:53.849Z,24.50
2023-05-24T09:20:22.614Z,24.80
2023-05-24T09:22:53.273Z,25.45
2023-05-24T09:25:21.787Z,25.37
2023-05-24T09:27:55.160Z,25.82
2023-05-24T09:30:23.363Z,25.69
2023-05-24T09:32:57.675Z,25.40
2023-05-24T09:35:26.911Z,25.52
2023-05-24T09:38:00.101Z,25.61
2023-05-24T09:40:28.934Z,25.43
2023-05-24T09:43:09.928Z,25.68
2023-05-24T09:45:44.471Z,25.44
2023-05-24T09:48:13.687Z,25.67
2023-05-24T09:50:42.492Z,25.60
2023-05-24T09:53:10.608Z,25.43
2023-05-24T09:55:38.967Z,25.21
2023-05-24T09:58:09.601Z,24.98
2023-05-24T10:00:41.672Z,25.18
2023-05-24T10:03:12.790Z,25.34
2023-05-24T10:05:43.554Z,25.34
2023-05-24T10:08:11.612Z,25.29
2023-05-24T10:10:39.551Z,26.03
2023-05-24T10:13:08.896Z,26.17
2023-05-24T10:15:36.782Z,25.63
2023-05-24T10:18:10.586Z,25.48
2023-05-24T10:20:57.182Z,25.27
2023-05-24T10:23:26.879Z,25.05
2023-05-24T10:26:01.674Z,24.84
2023-05-24T10:28:32.714Z,25.34
2023-05-24T10:31:07.455Z,25.83
2023-05-24T10:33:38.444Z,26.44
2023-05-24T10:36:09.992Z,26.07
2023-05-24T10:38:40.950Z,26.02
2023-05-24T10:41:09.408Z,25.74
2023-05-24T10:43:39.433Z,25.78
2023-05-24T10:46:10.705Z,25.78
2023-05-24T10:48:42.059Z,26.08
2023-05-24T10:51:36.680Z,26.40
2023-05-24T10:54:15.873Z,26.17
2023-05-24T10:56:46.328Z,26.14
2023-05-24T10:59:37.332Z,26.13
2023-05-24T11:02:09.854Z,26.45
2023-05-24T11:04:40.237Z,26.76
2023-05-24T11:07:10.564Z,27.19
2023-05-24T11:09:46.206Z,27.02
2023-05-24T11:12:17.534Z,27.25
2023-05-24T11:14:51.354Z,27.17
2023-05-24T11:17:23.935Z,27.33
2023-05-24T11:19:53.586Z,27.45
2023-05-24T11:22:23.034Z,27.56
2023-05-24T11:24:51.771Z,27.11
2023-05-24T11:27:19.702Z,27.42
2023-05-24T11:29:50.229Z,27.41
2023-05-24T11:32:20.006Z,27.54
2023-05-24T11:34:49.134Z,27.65
2023-05-24T11:37:18.778Z,27.69
2023-05-24T11:39:51.515Z,27.46
2023-05-24T11:42:19.719Z,27.33
2023-05-24T11:44:51.360Z,26.92
2023-05-24T11:47:22.496Z,26.38
2023-05-24T11:49:52.027Z,26.23
2023-05-24T11:52:20.064Z,25.94
2023-05-24T11:54:47.996Z,25.90
2023-05-24T11:57:16.890Z,26.11
2023-05-24T11:59:44.867Z,26.37
2023-05-24T12:02:14.636Z,26.75
2023-05-24T12:04:42.638Z,26.60
2023-05-24T12:07:12.229Z,27.02
2023-05-24T12:09:40.218Z,27.35
2023-05-24T12:12:08.670Z,27.56
2023-05-24T12:14:37.359Z,27.44
2023-05-24T12:17:05.389Z,28.01
2023-05-24T12:19:36.884Z,27.79
2023-05-24T12:22:06.547Z,27.50
2023-05-24T12:24:35.279Z,27.50
2023-05-24T12:27:06.937Z,27.29
2023-05-24T12:29:36.902Z,26.56
2023-05-24T12:32:05.896Z,26.67
2023-05-24T12:34:35.229Z,26.56
2023-05-24T12:37:03.912Z,26.58
2023-05-24T12:39:34.317Z,26.39
2023-05-24T12:42:03.718Z,26.03
2023-05-24T12:44:34.027Z,26.30
2023-05-24T12:47:04.209Z,26.65
2023-05-24T12:49:33.014Z,26.88
2023-05-24T12:52:02.934Z,26.64
2023-05-24T12:54:31.425Z,26.65
2023-05-24T12:57:02.661Z,26.80
2023-05-24T12:59:30.919Z,27.09
2023-05-24T13:01:58.863Z,27.28
2023-05-24T13:04:28.141Z,27.11
2023-05-24T13:06:56.214Z,26.79
2023-05-24T13:09:26.288Z,26.92
2023-05-24T13:11:55.274Z,27.22
2023-05-24T13:14:23.377Z,27.32
2023-05-24T13:16:51.586Z,27.73
2023-05-24T13:19:19.639Z,27.93
2023-05-24T13:21:47.636Z,28.03
2023-05-24T13:24:17.456Z,27.95
2023-05-24T13:26:47.220Z,27.58
2023-05-24T13:31:47.879Z,27.45
2023-05-24T13:34:17.671Z,26.72
2023-05-24T13:36:47.367Z,26.77
2023-05-24T13:39:16.457Z,26.58
2023-05-24T13:41:46.753Z,26.14
2023-05-24T13:44:15.761Z,25.09
2023-05-24T13:46:44.561Z,25.44
2023-05-24T13:49:13.784Z,25.85
2023-05-24T13:51:42.255Z,25.55
2023-05-24T13:54:10.209Z,25.54
2023-05-24T13:56:39.675Z,25.56
2023-05-24T13:59:09.896Z,25.10
2023-05-24T14:01:39.345Z,25.09
2023-05-24T14:04:08.076Z,24.97
2023-05-24T14:06:37.680Z,24.98
2023-05-24T14:09:07.635Z,24.74
2023-05-24T14:11:35.764Z,25.14
2023-05-24T14:16:36.743Z,25.40
2023-05-24T14:19:05.260Z,25.26
2023-05-24T14:21:33.571Z,25.37
2023-05-24T14:24:01.477Z,25.36
2023-05-24T14:26:29.480Z,25.49
2023-05-24T14:28:57.361Z,25.51
2023-05-24T14:31:25.607Z,25.44
2023-05-24T14:33:54.969Z,25.52
2023-05-24T14:36:22.995Z,25.12
2023-05-24T14:38:51.010Z,25.52
2023-05-24T14:41:19.351Z,25.35
2023-05-24T14:43:47.187Z,25.32
2023-05-24T14:46:15.081Z,25.38
2023-05-24T14:48:43.267Z,25.29
2023-05-24T14:51:12.539Z,25.27
2023-05-24T14:53:40.414Z,25.33
2023-05-24T14:56:10.142Z,25.43
2023-05-24T14:58:38.152Z,25.38
2023-05-24T15:01:06.871Z,24.98
2023-05-24T15:03:35.267Z,25.23
2023-05-24T15:06:03.767Z,25.22
2023-05-24T15:08:34.270Z,25.38
2023-05-24T15:11:02.173Z,25.34
2023-05-24T15:13:30.130Z,25.29
2023-05-24T15:16:00.489Z,25.32
2023-05-24T15:18:29.118Z,25.20
2023-05-24T15:20:57.293Z,25.29
2023-05-24T15:23:25.693Z,25.00
2023-05-24T15:25:55.177Z,25.16
2023-05-24T15:28:26.035Z,24.92
2023-05-24T15:30:54.468Z,24.99
2023-05-24T15:33:22.576Z,25.01
2023-05-24T15:35:50.626Z,24.97
2023-05-24T15:38:18.839Z,24.71
2023-05-24T15:40:47.075Z,25.09
2023-05-24T15:43:19.446Z,24.96
2023-05-24T15:45:48.638Z,24.96
2023-05-24T15:48:16.628Z,25.09
2023-05-24T15:51:06.465Z,24.99
2023-05-24T15:53:32.889Z,25.22
2023-05-24T15:56:00.916Z,25.15
2023-05-24T15:58:30.386Z,25.10
2023-05-24T16:00:58.436Z,25.16
2023-05-24T16:03:26.608Z,24.82
2023-05-24T16:05:54.695Z,24.56
2023-05-24T16:08:27.629Z,24.94
2023-05-24T16:10:55.828Z,25.11
2023-05-24T16:13:23.818Z,25.20
2023-05-24T16:15:53.105Z,25.13
2023-05-24T16:18:22.960Z,25.05
2023-05-24T16:20:51.826Z,24.91
2023-05-24T16:23:23.185Z,24.58
2023-05-24T16:25:51.469Z,24.06
2023-05-24T16:28:24.118Z,24.00
2023-05-24T16:30:56.040Z,23.95
2023-05-24T16:33:24.646Z,23.74
2023-05-24T16:35:56.156Z,23.70
2023-05-24T16:38:24.617Z,23.65
2023-05-24T16:40:52.868Z,23.59
2023-05-24T16:43:21.657Z,23.49
2023-05-24T16:45:49.993Z,23.46
2023-05-24T16:48:21.408Z,23.41
2023-05-24T16:50:50.500Z,23.40
2023-05-24T16:53:20.472Z,23.39
2023-05-24T16:55:53.686Z,23.40
2023-05-24T16:58:21.696Z,23.39
2023-05-24T17:00:49.738Z,23.36
2023-05-24T17:03:22.073Z,23.36
2023-05-24T17:05:50.389Z,23.35
2023-05-24T17:08:18.993Z,23.32
2023-05-24T17:10:46.928Z,23.25
2023-05-24T17:13:14.832Z,23.23
2023-05-24T17:15:42.811Z,23.22
2023-05-24T17:18:10.842Z,23.05
2023-05-24T17:20:40.476Z,23.18
2023-05-24T17:23:08.465Z,23.07
2023-05-24T17:25:36.494Z,23.05
2023-05-24T17:28:04.551Z,23.03
2023-05-24T17:30:33.317Z,23.14
2023-05-24T17:33:01.738Z,22.86
2023-05-24T17:35:30.144Z,22.89
2023-05-24T17:38:03.190Z,22.88
2023-05-24T17:40:31.088Z,22.83
2023-05-24T17:42:59.250Z,22.77
2023-05-24T17:45:27.392Z,22.71
2023-05-24T17:47:55.393Z,19.53
2023-05-24T17:50:23.479Z,22.66
2023-05-24T17:52:51.561Z,22.59
2023-05-24T17:55:20.845Z,22.61
2023-05-24T17:57:49.086Z,22.40
2023-05-24T18:00:17.968Z,22.30
2023-05-24T18:02:46.419Z,22.35
2023-05-24T18:05:16.039Z,22.26
2023-05-24T18:07:44.083Z,22.06
2023-05-24T18:10:12.833Z,21.83
2023-05-24T18:12:42.221Z,21.96
2023-05-24T18:15:10.817Z,21.91
2023-05-24T18:17:38.742Z,21.56
2023-05-24T18:20:07.573Z,21.80
2023-05-24T18:22:35.524Z,21.80
2023-05-24T18:25:03.650Z,21.82
2023-05-24T18:27:31.538Z,21.78
2023-05-24T18:30:01.112Z,21.80
2023-05-24T18:32:29.098Z,21.85
2023-05-24T18:34:57.113Z,21.53
2023-05-24T18:37:25.068Z,21.86
2023-05-24T18:39:52.990Z,21.86
2023-05-24T18:42:20.865Z,21.89
2023-05-24T18:44:48.792Z,21.94
2023-05-24T18:47:18.214Z,21.73
2023-05-24T18:49:46.233Z,21.71
2023-05-24T18:52:14.248Z,21.77
2023-05-24T18:54:42.283Z,21.65
2023-05-24T18:57:10.239Z,21.61
2023-05-24T18:59:38.865Z,21.61
2023-05-24T19:02:07.561Z,21.66
2023-05-24T19:04:36.899Z,21.70
2023-05-24T19:07:04.999Z,21.13
2023-05-24T19:09:32.898Z,21.37
2023-05-24T19:12:04.605Z,21.53
2023-05-24T19:14:32.607Z,21.45
2023-05-24T19:17:00.919Z,20.99
2023-05-24T19:19:28.936Z,21.51
2023-05-24T19:21:58.253Z,21.37
2023-05-24T19:24:26.183Z,21.38
2023-05-24T19:26:54.290Z,21.12
2023-05-24T19:29:22.239Z,20.95
2023-05-24T19:31:51.173Z,21.06
2023-05-24T19:34:19.599Z,21.21
2023-05-24T19:36:47.532Z,21.03
2023-05-24T19:39:16.820Z,20.95
2023-05-24T19:41:44.881Z,20.93
2023-05-24T19:44:12.798Z,20.85
2023-05-24T19:46:40.730Z,20.86
2023-05-24T19:49:08.688Z,20.71
2023-05-24T19:51:37.579Z,20.87
2023-05-24T19:54:05.672Z,20.91
2023-05-24T19:56:34.958Z,20.96
2023-05-24T19:59:02.954Z,20.87
2023-05-24T20:01:31.069Z,20.89
2023-05-24T20:03:59.195Z,20.90
2023-05-24T20:06:27.581Z,20.92
2023-05-24T20:08:57.812Z,20.97
2023-05-24T20:11:26.045Z,20.88
2023-05-24T20:13:56.180Z,20.97
2023-05-24T20:16:24.532Z,20.30
2023-05-24T20:18:52.565Z,20.80
2023-05-24T20:21:20.599Z,20.48
2023-05-24T20:23:50.698Z,20.53
2023-05-24T20:26:18.658Z,20.18
2023-05-24T20:28:47.099Z,19.95
2023-05-24T20:31:16.693Z,19.70
2023-05-24T20:33:44.834Z,19.67
2023-05-24T20:36:14.942Z,19.43
2023-05-24T20:38:42.939Z,19.17
2023-05-24T20:41:11.096Z,18.97
2023-05-24T20:43:39.146Z,18.21
2023-05-24T20:46:07.279Z,18.83
2023-05-24T20:48:36.585Z,18.59
2023-05-24T20:51:04.573Z,18.51
2023-05-24T20:53:32.720Z,18.41
2023-05-24T20:56:01.986Z,18.37
2023-05-24T20:58:30.979Z,18.23
2023-05-24T21:00:59.234Z,18.29
2023-05-24T21:03:27.298Z,18.27
2023-05-24T21:05:56.731Z,18.13
2023-05-24T21:08:24.678Z,18.03
2023-05-24T21:10:55.596Z,18.15
2023-05-24T21:13:25.734Z,18.05
2023-05-24T21:15:53.682Z,17.65
2023-05-24T21:18:21.622Z,17.84
2023-05-24T21:20:49.832Z,17.89
2023-05-24T21:23:19.095Z,17.67
2023-05-24T21:25:47.007Z,17.84
2023-05-24T21:28:15.148Z,18.00
2023-05-24T21:30:43.212Z,18.05
2023-05-24T21:33:12.314Z,18.09
2023-05-24T21:35:40.369Z,17.96
2023-05-24T21:38:08.330Z,18.10
2023-05-24T21:40:37.606Z,18.07
2023-05-24T21:43:05.897Z,18.13
2023-05-24T21:45:33.771Z,17.92
2023-05-24T21:48:01.767Z,18.14
2023-05-24T21:50:29.705Z,18.06
2023-05-24T21:52:57.625Z,17.97
2023-05-24T21:55:25.830Z,17.93
2023-05-24T21:57:55.106Z,17.96
2023-05-24T22:00:23.647Z,17.81
2023-05-24T22:02:51.713Z,17.83
2023-05-24T22:05:19.954Z,17.89
2023-05-24T22:07:47.896Z,17.79
2023-05-24T22:10:15.885Z,17.88
2023-05-24T22:12:43.885Z,17.91
2023-05-24T22:15:13.420Z,17.90
2023-05-24T22:17:42.035Z,17.18
2023-05-24T22:20:11.342Z,17.93
2023-05-24T22:22:40.332Z,17.92
2023-05-24T22:25:10.669Z,17.65
2023-05-24T22:27:38.640Z,17.93
2023-05-24T22:30:07.472Z,17.87
2023-05-24T22:32:37.004Z,18.05
2023-05-24T22:35:05.329Z,18.05
2023-05-24T22:37:33.396Z,18.01
2023-05-24T22:40:01.293Z,17.98
2023-05-24T22:42:30.282Z,17.94
2023-05-24T22:44:58.206Z,17.97
2023-05-24T22:47:26.877Z,17.96
2023-05-24T22:49:56.601Z,17.89
2023-05-24T22:52:24.719Z,17.89
2023-05-24T22:54:52.597Z,17.78
2023-05-24T22:57:21.809Z,17.81
2023-05-24T22:59:49.771Z,17.81
2023-05-24T23:02:17.673Z,17.78
2023-05-24T23:04:46.386Z,17.90
2023-05-24T23:07:16.703Z,17.71
2023-05-24T23:09:44.747Z,17.66
2023-05-24T23:12:14.209Z,17.80
2023-05-24T23:14:46.414Z,17.84
2023-05-24T23:17:14.620Z,17.55
2023-05-24T23:19:46.578Z,17.34
2023-05-24T23:22:18.626Z,17.66
2023-05-24T23:24:47.681Z,17.62
2023-05-24T23:27:15.908Z,17.63
2023-05-24T23:29:43.984Z,17.41
2023-05-24T23:32:11.913Z,17.56
2023-05-24T23:34:39.937Z,17.64
2023-05-24T23:37:08.940Z,17.63
2023-05-24T23:39:38.184Z,17.59
2023-05-24T23:42:07.470Z,17.50
2023-05-24T23:44:36.374Z,17.40
2023-05-24T23:47:04.377Z,17.27
2023-05-24T23:49:32.653Z,17.17
2023-05-24T23:52:00.810Z,17.05
2023-05-24T23:54:28.720Z,16.94
2023-05-24T23:56:57.960Z,16.63
2023-05-24T23:59:25.960Z,16.35
